Accueil
METAR-TAF:

METAR-TAF

Aéroports :

Aéroport international de Phnom Penh

Phnom Penh, Cambodge

latitude: 11-33N, longitude: 104-51E, altitude: 10 m

Observation

Le bulletin a été fait il y a 1 heure et 0 minutes, à 18:30 UTC
Vent 10 kt de sud
Température 27°C
Humidité 79%
Pression 1009 hPa
Visibilité 10 km ou plus
Quelques nuages à une hauteur de 1700 ft

METAR: VDPP 031830Z 18010KT 9999 FEW017 27/23 Q1009

Heure: 02:30 (19:30 UTC)

Prévision

Le bulletin a été fait il y a 2 heures et 30 minutes, à 17:00 UTC
Prévision valable du 03 à 18 UTC au 04 à 12 UTC
Vent 10 kt de sud/sud-est
Visibilité 10 km ou plus
Nuages épars à une hauteur de 1700 ft

TAF: VDPP 031700Z 0318/0412 16010KT 9999 SCT017

Observations et prévisions météorologiques de plus de 4000 aéroports (messages METAR et TAF).

Les stations disponibles sont représentées par des disques jaunes et rouges sur la carte.

Passer la souris dessus pour voir le nom de la station.

Cliquer dessus pour voir les observations et prévisions météorologiques.

Pour changer de carte: cliquez sur les boutons verts avec une croix noire pour zoomer, sur le bouton vert avec un tiret pour effectuer un zoom arrière, ou sur les flèches vertes pour les cartes adjacentes.


METAR-TAF: